sensor_id;sensor_type;location;lat;lon;timestamp;temperature;humidity
9006;DHT22;62284;50.702;7.140;2022-07-29T00:00:11;21.10;69.20
9006;DHT22;62284;50.702;7.140;2022-07-29T00:02:38;21.00;69.50
9006;DHT22;62284;50.702;7.140;2022-07-29T00:05:05;20.90;70.50
9006;DHT22;62284;50.702;7.140;2022-07-29T00:07:35;20.70;71.20
9006;DHT22;62284;50.702;7.140;2022-07-29T00:10:03;20.70;72.90
9006;DHT22;62284;50.702;7.140;2022-07-29T00:12:30;20.70;72.30
9006;DHT22;62284;50.702;7.140;2022-07-29T00:14:57;20.70;73.50
9006;DHT22;62284;50.702;7.140;2022-07-29T00:17:24;20.60;73.60
9006;DHT22;62284;50.702;7.140;2022-07-29T00:19:51;20.60;73.50
9006;DHT22;62284;50.702;7.140;2022-07-29T00:22:18;20.60;74.90
9006;DHT22;62284;50.702;7.140;2022-07-29T00:24:48;20.50;75.50
9006;DHT22;62284;50.702;7.140;2022-07-29T00:27:15;20.50;74.10
9006;DHT22;62284;50.702;7.140;2022-07-29T00:29:42;20.50;74.30
9006;DHT22;62284;50.702;7.140;2022-07-29T00:32:09;20.50;75.20
9006;DHT22;62284;50.702;7.140;2022-07-29T00:34:36;20.50;74.20
9006;DHT22;62284;50.702;7.140;2022-07-29T00:37:20;20.40;75.10
9006;DHT22;62284;50.702;7.140;2022-07-29T00:39:48;20.40;75.60
9006;DHT22;62284;50.702;7.140;2022-07-29T00:42:16;20.40;76.30
9006;DHT22;62284;50.702;7.140;2022-07-29T00:44:43;20.30;75.80
9006;DHT22;62284;50.702;7.140;2022-07-29T00:47:11;20.30;76.50
9006;DHT22;62284;50.702;7.140;2022-07-29T00:49:39;20.20;76.60
9006;DHT22;62284;50.702;7.140;2022-07-29T00:52:07;20.30;76.50
9006;DHT22;62284;50.702;7.140;2022-07-29T00:54:34;20.30;76.40
9006;DHT22;62284;50.702;7.140;2022-07-29T00:57:03;20.30;76.60
9006;DHT22;62284;50.702;7.140;2022-07-29T00:59:30;20.30;76.00
9006;DHT22;62284;50.702;7.140;2022-07-29T01:01:57;20.30;75.60
9006;DHT22;62284;50.702;7.140;2022-07-29T01:04:24;20.30;75.70
9006;DHT22;62284;50.702;7.140;2022-07-29T01:06:51;20.10;76.70
9006;DHT22;62284;50.702;7.140;2022-07-29T01:09:18;20.00;77.20
9006;DHT22;62284;50.702;7.140;2022-07-29T01:11:46;20.00;78.30
9006;DHT22;62284;50.702;7.140;2022-07-29T01:14:15;20.00;76.50
9006;DHT22;62284;50.702;7.140;2022-07-29T01:16:48;20.00;76.20
9006;DHT22;62284;50.702;7.140;2022-07-29T01:19:32;20.00;76.60
9006;DHT22;62284;50.702;7.140;2022-07-29T01:22:16;19.90;76.00
9006;DHT22;62284;50.702;7.140;2022-07-29T01:27:51;19.80;75.90
9006;DHT22;62284;50.702;7.140;2022-07-29T01:30:24;19.90;76.10
9006;DHT22;62284;50.702;7.140;2022-07-29T01:32:55;19.80;78.20
9006;DHT22;62284;50.702;7.140;2022-07-29T01:35:25;19.70;79.30
9006;DHT22;62284;50.702;7.140;2022-07-29T01:37:57;19.50;80.00
9006;DHT22;62284;50.702;7.140;2022-07-29T01:40:30;19.60;80.40
9006;DHT22;62284;50.702;7.140;2022-07-29T01:43:15;19.50;79.50
9006;DHT22;62284;50.702;7.140;2022-07-29T01:45:47;19.50;79.10
9006;DHT22;62284;50.702;7.140;2022-07-29T01:48:18;19.60;81.90
9006;DHT22;62284;50.702;7.140;2022-07-29T01:50:48;19.50;81.40
9006;DHT22;62284;50.702;7.140;2022-07-29T01:53:25;19.40;81.80
9006;DHT22;62284;50.702;7.140;2022-07-29T01:55:55;19.40;82.70
9006;DHT22;62284;50.702;7.140;2022-07-29T01:58:24;19.40;83.60
9006;DHT22;62284;50.702;7.140;2022-07-29T02:00:54;19.30;84.80
9006;DHT22;62284;50.702;7.140;2022-07-29T02:03:23;19.30;83.90
9006;DHT22;62284;50.702;7.140;2022-07-29T02:05:52;19.10;84.60
9006;DHT22;62284;50.702;7.140;2022-07-29T02:08:21;19.10;84.60
9006;DHT22;62284;50.702;7.140;2022-07-29T02:10:48;19.00;85.60
9006;DHT22;62284;50.702;7.140;2022-07-29T02:13:17;18.90;85.80
9006;DHT22;62284;50.702;7.140;2022-07-29T02:15:44;19.00;85.50
9006;DHT22;62284;50.702;7.140;2022-07-29T02:18:17;19.00;85.70
9006;DHT22;62284;50.702;7.140;2022-07-29T02:20:47;18.90;86.40
9006;DHT22;62284;50.702;7.140;2022-07-29T02:23:17;18.80;87.50
9006;DHT22;62284;50.702;7.140;2022-07-29T02:25:48;18.80;87.90
9006;DHT22;62284;50.702;7.140;2022-07-29T02:28:16;18.80;87.60
9006;DHT22;62284;50.702;7.140;2022-07-29T02:30:44;18.80;87.00
9006;DHT22;62284;50.702;7.140;2022-07-29T02:33:15;18.70;88.00
9006;DHT22;62284;50.702;7.140;2022-07-29T02:35:44;18.70;88.30
9006;DHT22;62284;50.702;7.140;2022-07-29T02:38:13;18.60;88.30
9006;DHT22;62284;50.702;7.140;2022-07-29T02:40:59;18.60;89.10
9006;DHT22;62284;50.702;7.140;2022-07-29T02:43:29;18.40;90.20
9006;DHT22;62284;50.702;7.140;2022-07-29T02:45:58;18.40;90.40
9006;DHT22;62284;50.702;7.140;2022-07-29T02:48:36;18.40;90.50
9006;DHT22;62284;50.702;7.140;2022-07-29T02:51:08;18.40;90.60
9006;DHT22;62284;50.702;7.140;2022-07-29T02:53:38;18.20;91.00
9006;DHT22;62284;50.702;7.140;2022-07-29T02:56:11;18.20;91.30
9006;DHT22;62284;50.702;7.140;2022-07-29T02:58:42;18.00;91.60
9006;DHT22;62284;50.702;7.140;2022-07-29T03:01:15;18.10;91.50
9006;DHT22;62284;50.702;7.140;2022-07-29T03:03:45;18.20;91.20
9006;DHT22;62284;50.702;7.140;2022-07-29T03:06:15;18.20;91.20
9006;DHT22;62284;50.702;7.140;2022-07-29T03:08:44;18.20;91.10
9006;DHT22;62284;50.702;7.140;2022-07-29T03:11:11;18.30;90.90
9006;DHT22;62284;50.702;7.140;2022-07-29T03:13:39;18.50;90.50
9006;DHT22;62284;50.702;7.140;2022-07-29T03:16:07;18.50;90.30
9006;DHT22;62284;50.702;7.140;2022-07-29T03:18:35;18.30;90.70
9006;DHT22;62284;50.702;7.140;2022-07-29T03:21:04;18.20;91.40
9006;DHT22;62284;50.702;7.140;2022-07-29T03:23:31;18.10;92.00
9006;DHT22;62284;50.702;7.140;2022-07-29T03:25:58;17.90;92.40
9006;DHT22;62284;50.702;7.140;2022-07-29T03:28:26;18.10;91.70
9006;DHT22;62284;50.702;7.140;2022-07-29T03:30:53;18.20;91.50
9006;DHT22;62284;50.702;7.140;2022-07-29T03:33:20;18.10;91.60
9006;DHT22;62284;50.702;7.140;2022-07-29T03:35:47;18.20;91.30
9006;DHT22;62284;50.702;7.140;2022-07-29T03:38:16;18.20;91.20
9006;DHT22;62284;50.702;7.140;2022-07-29T03:40:47;18.20;91.00
9006;DHT22;62284;50.702;7.140;2022-07-29T03:43:16;18.20;90.90
9006;DHT22;62284;50.702;7.140;2022-07-29T03:45:47;18.20;91.20
9006;DHT22;62284;50.702;7.140;2022-07-29T03:48:17;18.40;91.20
9006;DHT22;62284;50.702;7.140;2022-07-29T03:50:45;18.40;90.90
9006;DHT22;62284;50.702;7.140;2022-07-29T03:53:13;18.40;91.50
9006;DHT22;62284;50.702;7.140;2022-07-29T03:55:44;18.30;91.60
9006;DHT22;62284;50.702;7.140;2022-07-29T03:58:12;18.30;91.60
9006;DHT22;62284;50.702;7.140;2022-07-29T04:00:40;18.30;91.70
9006;DHT22;62284;50.702;7.140;2022-07-29T04:03:08;18.20;91.80
9006;DHT22;62284;50.702;7.140;2022-07-29T04:05:36;18.20;91.90
9006;DHT22;62284;50.702;7.140;2022-07-29T04:08:03;18.20;92.50
9006;DHT22;62284;50.702;7.140;2022-07-29T04:10:30;18.30;92.20
9006;DHT22;62284;50.702;7.140;2022-07-29T04:12:59;18.30;92.00
9006;DHT22;62284;50.702;7.140;2022-07-29T04:15:26;18.40;92.10
9006;DHT22;62284;50.702;7.140;2022-07-29T04:17:54;18.40;91.90
9006;DHT22;62284;50.702;7.140;2022-07-29T04:20:21;18.30;92.20
9006;DHT22;62284;50.702;7.140;2022-07-29T04:22:48;18.40;91.90
9006;DHT22;62284;50.702;7.140;2022-07-29T04:25:14;18.60;91.80
9006;DHT22;62284;50.702;7.140;2022-07-29T04:27:41;18.60;91.40
9006;DHT22;62284;50.702;7.140;2022-07-29T04:30:23;18.40;92.50
9006;DHT22;62284;50.702;7.140;2022-07-29T04:32:50;18.40;92.30
9006;DHT22;62284;50.702;7.140;2022-07-29T04:35:17;18.40;93.00
9006;DHT22;62284;50.702;7.140;2022-07-29T04:37:44;18.50;92.80
9006;DHT22;62284;50.702;7.140;2022-07-29T04:40:12;18.50;93.20
9006;DHT22;62284;50.702;7.140;2022-07-29T04:42:39;18.40;92.90
9006;DHT22;62284;50.702;7.140;2022-07-29T04:45:07;18.40;92.80
9006;DHT22;62284;50.702;7.140;2022-07-29T04:47:35;18.50;92.20
9006;DHT22;62284;50.702;7.140;2022-07-29T04:50:03;18.60;92.60
9006;DHT22;62284;50.702;7.140;2022-07-29T04:52:30;18.60;91.50
9006;DHT22;62284;50.702;7.140;2022-07-29T04:54:57;18.70;90.90
9006;DHT22;62284;50.702;7.140;2022-07-29T04:57:24;18.80;90.00
9006;DHT22;62284;50.702;7.140;2022-07-29T04:59:51;18.90;89.40
9006;DHT22;62284;50.702;7.140;2022-07-29T05:02:18;18.90;89.00
9006;DHT22;62284;50.702;7.140;2022-07-29T05:04:46;19.00;89.50
9006;DHT22;62284;50.702;7.140;2022-07-29T05:07:13;19.10;88.10
9006;DHT22;62284;50.702;7.140;2022-07-29T05:09:40;19.10;88.10
9006;DHT22;62284;50.702;7.140;2022-07-29T05:12:08;19.20;87.50
9006;DHT22;62284;50.702;7.140;2022-07-29T05:14:35;19.30;86.80
9006;DHT22;62284;50.702;7.140;2022-07-29T05:17:02;19.30;88.00
9006;DHT22;62284;50.702;7.140;2022-07-29T05:19:29;19.40;88.00
9006;DHT22;62284;50.702;7.140;2022-07-29T05:21:57;19.50;87.60
9006;DHT22;62284;50.702;7.140;2022-07-29T05:24:25;19.60;86.20
9006;DHT22;62284;50.702;7.140;2022-07-29T05:26:52;19.60;87.30
9006;DHT22;62284;50.702;7.140;2022-07-29T05:29:19;19.60;86.80
9006;DHT22;62284;50.702;7.140;2022-07-29T05:31:46;19.60;86.50
9006;DHT22;62284;50.702;7.140;2022-07-29T05:34:12;19.70;87.00
9006;DHT22;62284;50.702;7.140;2022-07-29T05:36:39;19.70;86.70
9006;DHT22;62284;50.702;7.140;2022-07-29T05:39:07;19.70;85.80
9006;DHT22;62284;50.702;7.140;2022-07-29T05:41:34;19.70;86.60
9006;DHT22;62284;50.702;7.140;2022-07-29T05:44:01;19.80;86.40
9006;DHT22;62284;50.702;7.140;2022-07-29T05:46:28;19.90;86.40
9006;DHT22;62284;50.702;7.140;2022-07-29T05:48:56;19.90;85.40
9006;DHT22;62284;50.702;7.140;2022-07-29T05:51:23;20.00;86.00
9006;DHT22;62284;50.702;7.140;2022-07-29T05:53:49;20.10;85.50
9006;DHT22;62284;50.702;7.140;2022-07-29T05:56:18;20.10;83.90
9006;DHT22;62284;50.702;7.140;2022-07-29T05:58:45;20.30;83.40
9006;DHT22;62284;50.702;7.140;2022-07-29T06:01:11;20.30;83.00
9006;DHT22;62284;50.702;7.140;2022-07-29T06:03:38;20.00;84.20
9006;DHT22;62284;50.702;7.140;2022-07-29T06:06:06;19.90;84.60
9006;DHT22;62284;50.702;7.140;2022-07-29T06:08:34;19.80;84.90
9006;DHT22;62284;50.702;7.140;2022-07-29T06:11:01;19.70;85.70
9006;DHT22;62284;50.702;7.140;2022-07-29T06:13:30;19.80;85.50
9006;DHT22;62284;50.702;7.140;2022-07-29T06:15:57;19.70;84.90
9006;DHT22;62284;50.702;7.140;2022-07-29T06:18:24;19.90;84.20
9006;DHT22;62284;50.702;7.140;2022-07-29T06:20:52;20.00;83.70
9006;DHT22;62284;50.702;7.140;2022-07-29T06:23:20;20.10;82.40
9006;DHT22;62284;50.702;7.140;2022-07-29T06:25:47;20.30;81.30
9006;DHT22;62284;50.702;7.140;2022-07-29T06:28:14;20.40;80.00
9006;DHT22;62284;50.702;7.140;2022-07-29T06:30:42;20.40;80.00
9006;DHT22;62284;50.702;7.140;2022-07-29T06:33:09;20.70;80.10
9006;DHT22;62284;50.702;7.140;2022-07-29T06:35:36;20.80;79.50
9006;DHT22;62284;50.702;7.140;2022-07-29T06:38:04;20.90;78.50
9006;DHT22;62284;50.702;7.140;2022-07-29T06:40:31;20.70;77.40
9006;DHT22;62284;50.702;7.140;2022-07-29T06:43:16;20.70;77.30
9006;DHT22;62284;50.702;7.140;2022-07-29T06:45:44;20.90;76.30
9006;DHT22;62284;50.702;7.140;2022-07-29T06:48:11;21.00;75.50
9006;DHT22;62284;50.702;7.140;2022-07-29T06:50:38;21.00;75.00
9006;DHT22;62284;50.702;7.140;2022-07-29T06:53:05;21.20;74.80
9006;DHT22;62284;50.702;7.140;2022-07-29T06:55:32;21.20;74.30
9006;DHT22;62284;50.702;7.140;2022-07-29T06:57:59;21.20;73.80
9006;DHT22;62284;50.702;7.140;2022-07-29T07:00:25;21.40;73.80
9006;DHT22;62284;50.702;7.140;2022-07-29T07:02:54;21.40;72.60
9006;DHT22;62284;50.702;7.140;2022-07-29T07:05:21;21.50;72.20
9006;DHT22;62284;50.702;7.140;2022-07-29T07:07:48;21.60;73.20
9006;DHT22;62284;50.702;7.140;2022-07-29T07:10:14;21.90;72.00
9006;DHT22;62284;50.702;7.140;2022-07-29T07:12:41;22.00;71.70
9006;DHT22;62284;50.702;7.140;2022-07-29T07:15:09;22.00;69.40
9006;DHT22;62284;50.702;7.140;2022-07-29T07:17:36;22.10;70.20
9006;DHT22;62284;50.702;7.140;2022-07-29T07:20:06;22.20;69.20
9006;DHT22;62284;50.702;7.140;2022-07-29T07:22:33;22.30;67.00
9006;DHT22;62284;50.702;7.140;2022-07-29T07:24:59;22.40;66.60
9006;DHT22;62284;50.702;7.140;2022-07-29T07:27:26;22.40;65.20
9006;DHT22;62284;50.702;7.140;2022-07-29T07:29:54;22.30;65.10
9006;DHT22;62284;50.702;7.140;2022-07-29T07:32:20;22.50;65.50
9006;DHT22;62284;50.702;7.140;2022-07-29T07:34:47;22.70;64.70
9006;DHT22;62284;50.702;7.140;2022-07-29T07:37:15;22.60;63.80
9006;DHT22;62284;50.702;7.140;2022-07-29T07:39:44;22.60;64.30
9006;DHT22;62284;50.702;7.140;2022-07-29T07:42:11;22.60;64.10
9006;DHT22;62284;50.702;7.140;2022-07-29T07:44:39;22.70;64.30
9006;DHT22;62284;50.702;7.140;2022-07-29T07:47:06;22.70;64.60
9006;DHT22;62284;50.702;7.140;2022-07-29T07:49:32;22.70;63.30
9006;DHT22;62284;50.702;7.140;2022-07-29T07:51:59;22.70;62.70
9006;DHT22;62284;50.702;7.140;2022-07-29T07:54:28;22.80;63.90
9006;DHT22;62284;50.702;7.140;2022-07-29T07:56:55;22.90;63.00
9006;DHT22;62284;50.702;7.140;2022-07-29T07:59:22;23.20;62.70
9006;DHT22;62284;50.702;7.140;2022-07-29T08:01:49;23.30;61.80
9006;DHT22;62284;50.702;7.140;2022-07-29T08:04:16;23.50;60.30
9006;DHT22;62284;50.702;7.140;2022-07-29T08:06:43;23.90;59.50
9006;DHT22;62284;50.702;7.140;2022-07-29T08:09:10;23.90;58.60
9006;DHT22;62284;50.702;7.140;2022-07-29T08:11:38;23.90;58.20
9006;DHT22;62284;50.702;7.140;2022-07-29T08:14:05;23.90;57.80
9006;DHT22;62284;50.702;7.140;2022-07-29T08:16:32;24.30;58.50
9006;DHT22;62284;50.702;7.140;2022-07-29T08:18:59;24.40;56.10
9006;DHT22;62284;50.702;7.140;2022-07-29T08:21:26;24.40;56.90
9006;DHT22;62284;50.702;7.140;2022-07-29T08:23:53;24.50;55.90
9006;DHT22;62284;50.702;7.140;2022-07-29T08:26:41;24.70;55.40
9006;DHT22;62284;50.702;7.140;2022-07-29T08:29:08;24.90;54.60
9006;DHT22;62284;50.702;7.140;2022-07-29T08:31:36;25.00;53.20
9006;DHT22;62284;50.702;7.140;2022-07-29T08:34:03;25.10;52.50
9006;DHT22;62284;50.702;7.140;2022-07-29T08:36:30;25.10;52.50
9006;DHT22;62284;50.702;7.140;2022-07-29T08:38:58;25.00;52.50
9006;DHT22;62284;50.702;7.140;2022-07-29T08:41:25;24.90;52.40
9006;DHT22;62284;50.702;7.140;2022-07-29T08:43:54;25.10;53.10
9006;DHT22;62284;50.702;7.140;2022-07-29T08:46:22;25.10;53.10
9006;DHT22;62284;50.702;7.140;2022-07-29T08:48:49;25.20;52.50
9006;DHT22;62284;50.702;7.140;2022-07-29T08:51:18;24.90;52.20
9006;DHT22;62284;50.702;7.140;2022-07-29T08:53:49;24.80;52.00
9006;DHT22;62284;50.702;7.140;2022-07-29T08:56:17;24.90;52.40
9006;DHT22;62284;50.702;7.140;2022-07-29T08:58:45;24.80;51.70
9006;DHT22;62284;50.702;7.140;2022-07-29T09:01:16;24.90;52.10
9006;DHT22;62284;50.702;7.140;2022-07-29T09:03:44;25.00;51.60
9006;DHT22;62284;50.702;7.140;2022-07-29T09:06:13;25.10;51.70
9006;DHT22;62284;50.702;7.140;2022-07-29T09:08:40;25.30;51.10
9006;DHT22;62284;50.702;7.140;2022-07-29T09:11:07;25.40;50.80
9006;DHT22;62284;50.702;7.140;2022-07-29T09:13:35;25.80;50.00
9006;DHT22;62284;50.702;7.140;2022-07-29T09:16:03;25.80;48.80
9006;DHT22;62284;50.702;7.140;2022-07-29T09:18:35;25.60;48.60
9006;DHT22;62284;50.702;7.140;2022-07-29T09:21:04;25.70;49.00
9006;DHT22;62284;50.702;7.140;2022-07-29T09:24:00;26.00;49.10
9006;DHT22;62284;50.702;7.140;2022-07-29T09:26:28;26.20;48.10
9006;DHT22;62284;50.702;7.140;2022-07-29T09:28:56;26.20;47.60
9006;DHT22;62284;50.702;7.140;2022-07-29T09:31:33;26.20;48.20
9006;DHT22;62284;50.702;7.140;2022-07-29T09:34:02;26.20;47.10
9006;DHT22;62284;50.702;7.140;2022-07-29T09:36:29;26.20;48.10
9006;DHT22;62284;50.702;7.140;2022-07-29T09:39:00;26.40;47.80
9006;DHT22;62284;50.702;7.140;2022-07-29T09:41:28;26.60;47.40
9006;DHT22;62284;50.702;7.140;2022-07-29T09:43:56;26.80;47.20
9006;DHT22;62284;50.702;7.140;2022-07-29T09:46:24;27.00;47.00
9006;DHT22;62284;50.702;7.140;2022-07-29T09:49:16;27.30;46.80
9006;DHT22;62284;50.702;7.140;2022-07-29T09:51:43;27.50;46.10
9006;DHT22;62284;50.702;7.140;2022-07-29T09:54:22;27.50;45.50
9006;DHT22;62284;50.702;7.140;2022-07-29T09:56:50;27.50;45.10
9006;DHT22;62284;50.702;7.140;2022-07-29T09:59:16;27.60;45.20
9006;DHT22;62284;50.702;7.140;2022-07-29T10:01:48;27.60;45.90
9006;DHT22;62284;50.702;7.140;2022-07-29T10:04:17;27.70;45.70
9006;DHT22;62284;50.702;7.140;2022-07-29T10:06:55;28.10;46.00
9006;DHT22;62284;50.702;7.140;2022-07-29T10:09:23;28.40;45.40
9006;DHT22;62284;50.702;7.140;2022-07-29T10:12:12;28.50;44.90
9006;DHT22;62284;50.702;7.140;2022-07-29T10:14:41;28.80;44.00
9006;DHT22;62284;50.702;7.140;2022-07-29T10:17:09;29.20;45.60
9006;DHT22;62284;50.702;7.140;2022-07-29T10:19:38;29.80;43.60
9006;DHT22;62284;50.702;7.140;2022-07-29T10:22:07;30.30;42.60
9006;DHT22;62284;50.702;7.140;2022-07-29T10:24:35;30.50;42.70
9006;DHT22;62284;50.702;7.140;2022-07-29T10:27:04;30.70;42.30
9006;DHT22;62284;50.702;7.140;2022-07-29T10:29:31;30.50;41.60
9006;DHT22;62284;50.702;7.140;2022-07-29T10:32:21;30.20;42.90
9006;DHT22;62284;50.702;7.140;2022-07-29T10:35:11;29.90;43.10
9006;DHT22;62284;50.702;7.140;2022-07-29T10:37:52;30.20;43.50
9006;DHT22;62284;50.702;7.140;2022-07-29T10:40:27;32.30;40.50
9006;DHT22;62284;50.702;7.140;2022-07-29T10:43:18;33.30;38.90
9006;DHT22;62284;50.702;7.140;2022-07-29T10:45:47;33.20;38.20
9006;DHT22;62284;50.702;7.140;2022-07-29T10:48:14;33.40;38.20
9006;DHT22;62284;50.702;7.140;2022-07-29T10:50:57;34.40;37.20
9006;DHT22;62284;50.702;7.140;2022-07-29T10:53:46;34.80;34.70
9006;DHT22;62284;50.702;7.140;2022-07-29T10:56:23;33.90;35.60
9006;DHT22;62284;50.702;7.140;2022-07-29T10:59:24;34.30;36.50
9006;DHT22;62284;50.702;7.140;2022-07-29T11:01:52;35.60;35.00
9006;DHT22;62284;50.702;7.140;2022-07-29T11:07:21;37.60;31.50
9006;DHT22;62284;50.702;7.140;2022-07-29T11:10:21;36.60;31.20
9006;DHT22;62284;50.702;7.140;2022-07-29T11:12:49;36.80;31.30
9006;DHT22;62284;50.702;7.140;2022-07-29T11:15:18;35.40;32.90
9006;DHT22;62284;50.702;7.140;2022-07-29T11:18:06;34.00;33.90
9006;DHT22;62284;50.702;7.140;2022-07-29T11:20:36;32.80;36.30
9006;DHT22;62284;50.702;7.140;2022-07-29T11:23:27;32.00;37.50
9006;DHT22;62284;50.702;7.140;2022-07-29T11:26:16;32.70;37.00
9006;DHT22;62284;50.702;7.140;2022-07-29T11:28:59;33.60;35.80
9006;DHT22;62284;50.702;7.140;2022-07-29T11:31:35;32.80;36.20
9006;DHT22;62284;50.702;7.140;2022-07-29T11:34:16;32.80;36.70
9006;DHT22;62284;50.702;7.140;2022-07-29T11:37:13;33.70;35.20
9006;DHT22;62284;50.702;7.140;2022-07-29T11:39:43;33.30;35.60
9006;DHT22;62284;50.702;7.140;2022-07-29T11:42:39;33.40;35.80
9006;DHT22;62284;50.702;7.140;2022-07-29T11:45:08;34.20;34.40
9006;DHT22;62284;50.702;7.140;2022-07-29T11:47:37;34.90;34.50
9006;DHT22;62284;50.702;7.140;2022-07-29T11:50:06;36.10;32.40
9006;DHT22;62284;50.702;7.140;2022-07-29T11:52:34;36.50;31.50
9006;DHT22;62284;50.702;7.140;2022-07-29T11:55:05;36.50;31.40
9006;DHT22;62284;50.702;7.140;2022-07-29T11:57:34;36.80;30.50
9006;DHT22;62284;50.702;7.140;2022-07-29T12:00:03;37.30;30.30
9006;DHT22;62284;50.702;7.140;2022-07-29T12:02:40;38.10;30.00
9006;DHT22;62284;50.702;7.140;2022-07-29T12:05:09;37.40;30.20
9006;DHT22;62284;50.702;7.140;2022-07-29T12:07:37;35.80;32.00
9006;DHT22;62284;50.702;7.140;2022-07-29T12:10:07;34.40;33.40
9006;DHT22;62284;50.702;7.140;2022-07-29T12:12:34;33.80;34.00
9006;DHT22;62284;50.702;7.140;2022-07-29T12:15:12;33.30;34.80
9006;DHT22;62284;50.702;7.140;2022-07-29T12:17:40;32.30;36.40
9006;DHT22;62284;50.702;7.140;2022-07-29T12:20:07;31.50;37.30
9006;DHT22;62284;50.702;7.140;2022-07-29T12:22:36;31.50;38.20
9006;DHT22;62284;50.702;7.140;2022-07-29T12:25:07;32.50;36.80
9006;DHT22;62284;50.702;7.140;2022-07-29T12:27:35;34.00;34.70
9006;DHT22;62284;50.702;7.140;2022-07-29T12:30:05;35.30;32.20
9006;DHT22;62284;50.702;7.140;2022-07-29T12:32:33;35.60;31.90
9006;DHT22;62284;50.702;7.140;2022-07-29T12:35:06;35.20;31.60
9006;DHT22;62284;50.702;7.140;2022-07-29T12:37:34;34.70;31.90
9006;DHT22;62284;50.702;7.140;2022-07-29T12:40:03;34.50;32.20
9006;DHT22;62284;50.702;7.140;2022-07-29T12:42:32;34.20;33.00
9006;DHT22;62284;50.702;7.140;2022-07-29T12:44:59;33.80;32.90
9006;DHT22;62284;50.702;7.140;2022-07-29T12:47:26;33.10;34.00
9006;DHT22;62284;50.702;7.140;2022-07-29T12:50:08;33.60;34.10
9006;DHT22;62284;50.702;7.140;2022-07-29T12:52:36;33.60;34.70
9006;DHT22;62284;50.702;7.140;2022-07-29T12:55:03;33.50;34.00
9006;DHT22;62284;50.702;7.140;2022-07-29T12:57:35;33.30;34.20
9006;DHT22;62284;50.702;7.140;2022-07-29T13:00:12;33.50;33.80
9006;DHT22;62284;50.702;7.140;2022-07-29T13:02:41;33.80;33.50
9006;DHT22;62284;50.702;7.140;2022-07-29T13:05:10;34.20;33.80
9006;DHT22;62284;50.702;7.140;2022-07-29T13:07:38;34.50;32.80
9006;DHT22;62284;50.702;7.140;2022-07-29T13:10:13;33.90;32.70
9006;DHT22;62284;50.702;7.140;2022-07-29T13:13:04;33.30;33.30
9006;DHT22;62284;50.702;7.140;2022-07-29T13:15:31;33.70;33.70
9006;DHT22;62284;50.702;7.140;2022-07-29T13:17:59;33.40;33.90
9006;DHT22;62284;50.702;7.140;2022-07-29T13:20:28;33.10;34.70
9006;DHT22;62284;50.702;7.140;2022-07-29T13:22:56;33.50;34.60
9006;DHT22;62284;50.702;7.140;2022-07-29T13:25:25;33.10;34.80
9006;DHT22;62284;50.702;7.140;2022-07-29T13:27:52;33.50;34.80
9006;DHT22;62284;50.702;7.140;2022-07-29T13:30:22;33.10;34.40
9006;DHT22;62284;50.702;7.140;2022-07-29T13:32:51;33.50;34.70
9006;DHT22;62284;50.702;7.140;2022-07-29T13:35:18;33.70;34.60
9006;DHT22;62284;50.702;7.140;2022-07-29T13:37:46;34.50;34.50
9006;DHT22;62284;50.702;7.140;2022-07-29T13:40:13;34.40;33.30
9006;DHT22;62284;50.702;7.140;2022-07-29T13:42:40;34.10;33.50
9006;DHT22;62284;50.702;7.140;2022-07-29T13:45:09;33.80;34.00
9006;DHT22;62284;50.702;7.140;2022-07-29T13:47:37;33.70;34.20
9006;DHT22;62284;50.702;7.140;2022-07-29T13:50:07;34.00;34.60
9006;DHT22;62284;50.702;7.140;2022-07-29T13:52:36;34.70;32.20
9006;DHT22;62284;50.702;7.140;2022-07-29T13:55:05;35.40;32.10
9006;DHT22;62284;50.702;7.140;2022-07-29T13:57:32;35.80;32.00
9006;DHT22;62284;50.702;7.140;2022-07-29T13:59:59;36.20;31.90
9006;DHT22;62284;50.702;7.140;2022-07-29T14:02:26;36.50;31.20
9006;DHT22;62284;50.702;7.140;2022-07-29T14:04:54;36.40;31.00
9006;DHT22;62284;50.702;7.140;2022-07-29T14:07:21;36.60;31.30
9006;DHT22;62284;50.702;7.140;2022-07-29T14:09:48;35.90;31.30
9006;DHT22;62284;50.702;7.140;2022-07-29T14:12:15;35.70;30.70
9006;DHT22;62284;50.702;7.140;2022-07-29T14:14:42;36.00;30.70
9006;DHT22;62284;50.702;7.140;2022-07-29T14:17:09;36.50;30.40
9006;DHT22;62284;50.702;7.140;2022-07-29T14:19:36;36.30;30.20
9006;DHT22;62284;50.702;7.140;2022-07-29T14:22:06;36.20;30.70
9006;DHT22;62284;50.702;7.140;2022-07-29T14:24:33;37.60;29.60
9006;DHT22;62284;50.702;7.140;2022-07-29T14:27:00;38.10;29.00
9006;DHT22;62284;50.702;7.140;2022-07-29T14:29:27;38.10;28.40
9006;DHT22;62284;50.702;7.140;2022-07-29T14:31:54;38.40;28.50
9006;DHT22;62284;50.702;7.140;2022-07-29T14:34:21;39.20;28.00
9006;DHT22;62284;50.702;7.140;2022-07-29T14:36:48;39.50;27.00
9006;DHT22;62284;50.702;7.140;2022-07-29T14:39:16;40.00;26.60
9006;DHT22;62284;50.702;7.140;2022-07-29T14:41:43;40.50;26.00
9006;DHT22;62284;50.702;7.140;2022-07-29T14:44:10;40.70;26.20
9006;DHT22;62284;50.702;7.140;2022-07-29T14:46:36;41.00;25.60
9006;DHT22;62284;50.702;7.140;2022-07-29T14:49:03;40.30;25.50
9006;DHT22;62284;50.702;7.140;2022-07-29T14:51:31;39.40;26.10
9006;DHT22;62284;50.702;7.140;2022-07-29T14:53:59;39.70;26.70
9006;DHT22;62284;50.702;7.140;2022-07-29T14:56:27;39.80;26.00
9006;DHT22;62284;50.702;7.140;2022-07-29T14:58:55;39.80;26.70
9006;DHT22;62284;50.702;7.140;2022-07-29T15:01:22;41.30;25.60
9006;DHT22;62284;50.702;7.140;2022-07-29T15:03:49;40.00;26.40
9006;DHT22;62284;50.702;7.140;2022-07-29T15:06:17;39.50;26.80
9006;DHT22;62284;50.702;7.140;2022-07-29T15:08:43;38.60;27.60
9006;DHT22;62284;50.702;7.140;2022-07-29T15:11:10;38.10;28.20
9006;DHT22;62284;50.702;7.140;2022-07-29T15:13:39;38.10;28.40
9006;DHT22;62284;50.702;7.140;2022-07-29T15:16:07;39.00;27.80
9006;DHT22;62284;50.702;7.140;2022-07-29T15:18:34;39.50;26.80
9006;DHT22;62284;50.702;7.140;2022-07-29T15:21:03;39.80;27.20
9006;DHT22;62284;50.702;7.140;2022-07-29T15:23:32;40.30;26.40
9006;DHT22;62284;50.702;7.140;2022-07-29T15:26:00;40.10;26.90
9006;DHT22;62284;50.702;7.140;2022-07-29T15:28:27;40.20;27.30
9006;DHT22;62284;50.702;7.140;2022-07-29T15:30:56;40.20;26.60
9006;DHT22;62284;50.702;7.140;2022-07-29T15:33:22;39.70;26.80
9006;DHT22;62284;50.702;7.140;2022-07-29T15:35:49;40.50;26.70
9006;DHT22;62284;50.702;7.140;2022-07-29T15:38:17;40.00;27.00
9006;DHT22;62284;50.702;7.140;2022-07-29T15:40:44;39.10;27.70
9006;DHT22;62284;50.702;7.140;2022-07-29T15:43:11;38.20;28.40
9006;DHT22;62284;50.702;7.140;2022-07-29T15:45:40;37.90;29.30
9006;DHT22;62284;50.702;7.140;2022-07-29T15:48:09;37.30;29.60
9006;DHT22;62284;50.702;7.140;2022-07-29T15:50:36;35.90;30.80
9006;DHT22;62284;50.702;7.140;2022-07-29T15:53:03;35.80;31.00
9006;DHT22;62284;50.702;7.140;2022-07-29T15:55:29;35.30;31.60
9006;DHT22;62284;50.702;7.140;2022-07-29T15:57:56;35.10;31.70
9006;DHT22;62284;50.702;7.140;2022-07-29T16:00:23;35.40;31.60
9006;DHT22;62284;50.702;7.140;2022-07-29T16:02:50;35.00;31.40
9006;DHT22;62284;50.702;7.140;2022-07-29T16:05:18;34.50;32.00